createdAt,value
2023-07-22T00:00:37.811Z,7.60
2023-07-22T00:03:50.812Z,5.13
2023-07-22T00:06:50.770Z,6.43
2023-07-22T00:10:03.763Z,9.97
2023-07-22T00:13:17.774Z,5.47
2023-07-22T00:16:30.017Z,6.75
2023-07-22T00:19:29.853Z,6.93
2023-07-22T00:22:41.861Z,5.75
2023-07-22T00:25:41.826Z,5.80
2023-07-22T00:29:08.858Z,7.83
2023-07-22T00:32:08.848Z,7.23
2023-07-22T00:35:22.875Z,7.63
2023-07-22T00:38:23.950Z,6.00
2023-07-22T00:41:35.852Z,7.00
2023-07-22T00:44:49.917Z,7.40
2023-07-22T00:48:14.879Z,5.23
2023-07-22T00:51:14.965Z,6.77
2023-07-22T00:54:26.964Z,8.00
2023-07-22T00:57:51.948Z,6.07
2023-07-22T01:01:18.981Z,5.40
2023-07-22T01:04:30.947Z,4.95
2023-07-22T01:07:55.956Z,9.50
2023-07-22T01:10:55.989Z,7.73
2023-07-22T01:14:08.970Z,6.27
2023-07-22T01:17:23.080Z,7.80
2023-07-22T01:20:47.037Z,6.75
2023-07-22T01:24:01.064Z,7.17
2023-07-22T01:27:25.033Z,7.07
2023-07-22T01:30:26.028Z,6.67
2023-07-22T01:33:39.012Z,7.10
2023-07-22T01:36:40.036Z,8.30
2023-07-22T01:40:06.110Z,7.95
2023-07-22T01:43:07.038Z,7.40
2023-07-22T01:46:20.156Z,5.25
2023-07-22T01:49:32.095Z,6.67
2023-07-22T01:52:44.122Z,6.40
2023-07-22T01:55:58.120Z,5.77
2023-07-22T01:59:10.185Z,7.60
2023-07-22T02:02:10.124Z,8.00
2023-07-22T02:05:35.106Z,6.40
2023-07-22T02:08:36.132Z,8.17
2023-07-22T02:12:02.219Z,8.30
2023-07-22T02:15:02.170Z,5.15
2023-07-22T02:18:15.204Z,5.70
2023-07-22T02:21:15.234Z,15.07
2023-07-22T02:24:39.312Z,9.93
2023-07-22T02:27:54.203Z,8.43
2023-07-22T02:31:19.241Z,8.17
2023-07-22T02:34:19.256Z,8.10
2023-07-22T02:37:32.194Z,6.70
2023-07-22T02:40:32.267Z,8.05
2023-07-22T02:43:57.311Z,10.50
2023-07-22T02:46:57.292Z,8.10
2023-07-22T02:50:09.280Z,7.47
2023-07-22T02:53:09.345Z,6.70
2023-07-22T02:56:29.554Z,5.55
2023-07-22T02:59:55.319Z,12.50
2023-07-22T03:03:19.346Z,6.85
2023-07-22T03:06:32.364Z,7.60
2023-07-22T03:09:44.373Z,7.17
2023-07-22T03:12:44.415Z,9.70
2023-07-22T03:16:10.342Z,9.73
2023-07-22T03:19:22.342Z,9.80
2023-07-22T03:22:34.399Z,6.10
2023-07-22T03:25:35.368Z,6.65
2023-07-22T03:28:59.626Z,6.63
2023-07-22T03:32:14.357Z,5.73
2023-07-22T03:35:26.418Z,7.43
2023-07-22T03:38:26.449Z,8.30
2023-07-22T03:41:38.518Z,7.25
2023-07-22T03:44:38.428Z,6.80
2023-07-22T03:48:04.555Z,6.45
2023-07-22T03:51:18.913Z,7.57
2023-07-22T03:54:16.515Z,7.63
2023-07-22T03:57:17.553Z,5.43
2023-07-22T04:00:29.547Z,6.10
2023-07-22T04:03:56.579Z,8.50
2023-07-22T04:06:56.508Z,7.45
2023-07-22T04:10:08.611Z,8.30
2023-07-22T04:13:08.548Z,6.30
2023-07-22T04:16:20.584Z,10.43
2023-07-22T04:19:34.599Z,7.75
2023-07-22T04:22:47.555Z,6.80
2023-07-22T04:26:11.620Z,10.55
2023-07-22T04:29:24.568Z,8.50
2023-07-22T04:32:38.597Z,7.73
2023-07-22T04:36:05.574Z,5.70
2023-07-22T04:39:05.636Z,7.55
2023-07-22T04:42:19.625Z,7.35
2023-07-22T04:45:20.605Z,7.85
2023-07-22T04:48:45.686Z,6.20
2023-07-22T04:51:59.668Z,8.00
2023-07-22T04:55:12.678Z,8.50
2023-07-22T04:58:12.679Z,6.45
2023-07-22T05:01:25.701Z,7.00
2023-07-22T05:04:26.730Z,7.50
2023-07-22T05:07:52.687Z,6.65
2023-07-22T05:11:04.669Z,5.70
2023-07-22T05:14:17.710Z,7.30
2023-07-22T05:17:18.755Z,4.95
2023-07-22T05:20:31.728Z,9.40
2023-07-22T05:23:57.773Z,6.60
2023-07-22T05:27:10.292Z,6.95
2023-07-22T05:30:16.219Z,8.07
2023-07-22T05:33:22.842Z,6.90
2023-07-22T05:36:22.770Z,5.87
2023-07-22T05:39:48.790Z,7.25
2023-07-22T05:42:48.873Z,8.87
2023-07-22T05:46:00.878Z,6.80
2023-07-22T05:49:00.794Z,8.77
2023-07-22T05:52:12.849Z,7.47
2023-07-22T05:55:25.827Z,7.37
2023-07-22T05:58:37.898Z,9.15
2023-07-22T06:01:49.909Z,8.40
2023-07-22T06:05:05.895Z,10.00
2023-07-22T06:08:05.896Z,8.35
2023-07-22T06:11:31.879Z,8.75
2023-07-22T06:14:31.891Z,9.57
2023-07-22T06:17:43.952Z,12.43
2023-07-22T06:20:44.892Z,9.45
2023-07-22T06:23:56.932Z,10.93
2023-07-22T06:27:11.000Z,10.80
2023-07-22T06:30:35.934Z,9.87
2023-07-22T06:33:35.952Z,13.63
2023-07-22T06:36:48.029Z,11.33
2023-07-22T06:39:47.943Z,9.30
2023-07-22T06:43:14.012Z,12.00
2023-07-22T06:46:14.095Z,11.20
2023-07-22T06:49:26.995Z,10.93
2023-07-22T06:52:39.024Z,12.73
2023-07-22T06:55:51.001Z,10.50
2023-07-22T06:59:05.045Z,12.00
2023-07-22T07:02:30.060Z,13.05
2023-07-22T07:05:31.101Z,10.43
2023-07-22T07:08:43.097Z,10.23
2023-07-22T07:11:55.117Z,13.03
2023-07-22T07:15:21.105Z,11.73
2023-07-22T07:18:21.180Z,10.83
2023-07-22T07:21:45.085Z,10.70
2023-07-22T07:24:45.187Z,12.40
2023-07-22T07:27:57.149Z,11.83
2023-07-22T07:31:10.136Z,12.80
2023-07-22T07:34:23.138Z,14.60
2023-07-22T07:37:23.350Z,12.70
2023-07-22T07:40:35.151Z,13.65
2023-07-22T07:43:35.144Z,14.77
2023-07-22T07:46:49.288Z,12.90
2023-07-22T07:49:49.239Z,11.00
2023-07-22T07:53:02.198Z,12.50
2023-07-22T07:56:02.214Z,12.73
2023-07-22T07:59:16.165Z,12.17
2023-07-22T08:02:30.342Z,13.00
2023-07-22T08:05:42.230Z,11.07
2023-07-22T08:08:54.250Z,15.33
2023-07-22T08:12:06.284Z,12.03
2023-07-22T08:15:18.325Z,10.63
2023-07-22T08:18:44.282Z,9.23
2023-07-22T08:21:44.281Z,14.17
2023-07-22T08:24:57.975Z,10.67
2023-07-22T08:27:57.396Z,8.37
2023-07-22T08:31:24.420Z,8.43
2023-07-22T08:34:37.319Z,8.80
2023-07-22T08:37:49.337Z,7.83
2023-07-22T08:41:01.361Z,7.40
2023-07-22T08:44:25.404Z,8.60
2023-07-22T08:47:37.437Z,7.23
2023-07-22T08:51:04.364Z,7.57
2023-07-22T08:54:17.426Z,9.70
2023-07-22T08:57:41.428Z,10.07
2023-07-22T09:00:53.532Z,10.67
2023-07-22T09:04:18.402Z,6.77
2023-07-22T09:07:32.398Z,7.17
2023-07-22T09:10:57.466Z,6.70
2023-07-22T09:14:10.992Z,6.43
2023-07-22T09:17:22.490Z,6.77
2023-07-22T09:20:35.537Z,5.83
2023-07-22T09:24:02.514Z,7.97
2023-07-22T09:27:14.588Z,6.03
2023-07-22T09:30:47.574Z,6.43
2023-07-22T09:33:59.483Z,7.90
2023-07-22T09:37:23.568Z,6.57
2023-07-22T09:40:45.610Z,5.43
2023-07-22T09:44:09.569Z,10.20
2023-07-22T09:47:09.606Z,7.93
2023-07-22T09:50:35.614Z,5.07
2023-07-22T09:53:37.563Z,5.95
2023-07-22T09:57:09.582Z,4.33
2023-07-22T10:00:12.572Z,7.47
2023-07-22T10:03:37.643Z,4.97
2023-07-22T10:06:49.589Z,4.93
2023-07-22T10:10:14.626Z,6.40
2023-07-22T10:13:28.672Z,5.63
2023-07-22T10:16:53.738Z,8.73
2023-07-22T10:20:05.614Z,6.20
2023-07-22T10:23:30.720Z,7.70
2023-07-22T10:26:47.209Z,5.67
2023-07-22T10:30:07.672Z,5.17
2023-07-22T10:33:19.666Z,6.60
2023-07-22T10:36:44.752Z,5.53
2023-07-22T10:39:45.782Z,5.47
2023-07-22T10:43:16.698Z,9.90
2023-07-22T10:46:31.769Z,4.90
2023-07-22T10:50:07.790Z,5.20
2023-07-22T10:53:19.806Z,7.00
2023-07-22T10:56:44.736Z,6.07
2023-07-22T10:59:57.795Z,5.73
2023-07-22T11:03:38.835Z,6.97
2023-07-22T11:06:50.832Z,5.70
2023-07-22T11:10:17.965Z,8.20
2023-07-22T11:13:18.828Z,6.75
2023-07-22T11:16:31.981Z,6.63
2023-07-22T11:19:45.858Z,5.47
2023-07-22T11:22:57.866Z,5.40
2023-07-22T11:26:10.896Z,5.23
2023-07-22T11:29:34.923Z,6.80
2023-07-22T11:32:34.922Z,5.67
2023-07-22T11:36:01.911Z,6.83
2023-07-22T11:39:14.942Z,5.90
2023-07-22T11:42:26.924Z,8.57
2023-07-22T11:45:39.000Z,6.10
2023-07-22T11:48:51.935Z,6.30
2023-07-22T11:52:05.928Z,7.80
2023-07-22T11:55:26.890Z,8.37
2023-07-22T11:58:30.933Z,7.23
2023-07-22T12:01:55.986Z,4.53
2023-07-22T12:05:19.985Z,5.07
2023-07-22T12:08:33.957Z,7.93
2023-07-22T12:11:59.029Z,4.50
2023-07-22T12:14:59.009Z,5.73
2023-07-22T12:18:23.088Z,5.00
2023-07-22T12:21:23.049Z,6.63
2023-07-22T12:24:53.001Z,3.87
2023-07-22T12:27:53.117Z,6.43
2023-07-22T12:31:05.056Z,4.80
2023-07-22T12:34:05.039Z,4.10
2023-07-22T12:37:18.100Z,3.83
2023-07-22T12:40:33.163Z,5.63
2023-07-22T12:43:45.175Z,5.73
2023-07-22T12:46:45.189Z,4.40
2023-07-22T12:49:57.100Z,4.30
2023-07-22T12:52:57.154Z,5.17
2023-07-22T12:56:24.218Z,3.80
2023-07-22T12:59:24.119Z,6.13
2023-07-22T13:02:37.285Z,4.73
2023-07-22T13:05:49.756Z,4.37
2023-07-22T13:09:01.251Z,7.33
2023-07-22T13:12:15.249Z,4.67
2023-07-22T13:15:40.331Z,3.87
2023-07-22T13:18:40.254Z,5.03
2023-07-22T13:21:52.173Z,4.13
2023-07-22T13:24:52.242Z,4.90
2023-07-22T13:28:19.300Z,4.73
2023-07-22T13:31:19.277Z,5.20
2023-07-22T13:34:31.286Z,2.97
2023-07-22T13:37:31.303Z,3.63
2023-07-22T13:40:43.305Z,3.50
2023-07-22T13:43:57.247Z,3.87
2023-07-22T13:47:09.350Z,3.60
2023-07-22T13:50:09.379Z,5.23
2023-07-22T13:53:21.334Z,3.43
2023-07-22T13:56:21.296Z,3.90
2023-07-22T13:59:47.319Z,3.73
2023-07-22T14:02:47.509Z,3.43
2023-07-22T14:06:11.382Z,4.60
2023-07-22T14:09:11.348Z,2.97
2023-07-22T14:12:23.372Z,4.13
2023-07-22T14:15:37.422Z,3.00
2023-07-22T14:18:49.619Z,4.03
2023-07-22T14:21:49.418Z,6.97
2023-07-22T14:25:02.430Z,4.10
2023-07-22T14:28:03.437Z,3.80
2023-07-22T14:31:30.801Z,4.60
2023-07-22T14:34:30.448Z,5.13
2023-07-22T14:37:42.501Z,6.30
2023-07-22T14:40:54.489Z,6.60
2023-07-22T14:44:09.472Z,4.77
2023-07-22T14:47:23.495Z,5.83
2023-07-22T14:50:47.473Z,6.47
2023-07-22T14:53:48.484Z,4.73
2023-07-22T14:57:00.495Z,5.30
2023-07-22T15:00:00.498Z,4.90
2023-07-22T15:03:26.635Z,6.07
2023-07-22T15:06:26.549Z,4.23
2023-07-22T15:09:51.592Z,5.37
2023-07-22T15:12:51.813Z,4.60
2023-07-22T15:16:17.649Z,4.40
2023-07-22T15:19:31.650Z,5.07
2023-07-22T15:22:44.723Z,6.43
2023-07-22T15:25:44.677Z,4.70
2023-07-22T15:28:56.630Z,5.97
2023-07-22T15:31:57.597Z,7.27
2023-07-22T15:35:24.857Z,5.07
2023-07-22T15:38:23.648Z,4.80
2023-07-22T15:41:36.695Z,4.67
2023-07-22T15:44:36.654Z,6.35
2023-07-22T15:47:49.709Z,3.87
2023-07-22T15:51:03.694Z,4.27
2023-07-22T15:54:15.714Z,5.47
2023-07-22T15:57:15.746Z,4.17
2023-07-22T16:00:39.746Z,4.37
2023-07-22T16:03:51.836Z,4.47
2023-07-22T16:07:05.752Z,4.67
2023-07-22T16:10:31.786Z,4.33
2023-07-22T16:13:31.807Z,4.03
2023-07-22T16:16:46.848Z,6.23
2023-07-22T16:19:46.751Z,5.00
2023-07-22T16:23:13.777Z,6.47
2023-07-22T16:26:25.777Z,4.30
2023-07-22T16:29:38.863Z,4.30
2023-07-22T16:32:38.812Z,5.43
2023-07-22T16:35:51.818Z,4.80
2023-07-22T16:39:05.791Z,4.93
2023-07-22T16:42:18.849Z,4.10
2023-07-22T16:45:31.886Z,4.63
2023-07-22T16:48:43.861Z,4.50
2023-07-22T16:51:43.892Z,4.23
2023-07-22T16:55:10.900Z,4.10
2023-07-22T16:58:10.856Z,6.27
2023-07-22T17:01:22.970Z,6.43
2023-07-22T17:04:22.942Z,3.73
2023-07-22T17:07:35.928Z,3.95
2023-07-22T17:10:49.903Z,4.10
2023-07-22T17:14:03.949Z,6.65
2023-07-22T17:17:03.996Z,7.67
2023-07-22T17:20:16.929Z,5.83
2023-07-22T17:23:16.982Z,4.17
2023-07-22T17:26:42.946Z,5.13
2023-07-22T17:29:43.061Z,4.23
2023-07-22T17:32:56.071Z,6.60
2023-07-22T17:36:07.949Z,3.73
2023-07-22T17:39:20.073Z,4.80
2023-07-22T17:42:33.990Z,4.80
2023-07-22T17:45:58.078Z,5.90
2023-07-22T17:48:58.075Z,4.20
2023-07-22T17:52:10.051Z,4.37
2023-07-22T17:55:10.074Z,4.30
2023-07-22T17:58:36.068Z,4.60
2023-07-22T18:01:36.198Z,8.50
2023-07-22T18:05:00.144Z,3.20
2023-07-22T18:08:00.149Z,3.67
2023-07-22T18:11:12.113Z,5.10
2023-07-22T18:14:26.180Z,3.90
2023-07-22T18:17:38.158Z,4.03
2023-07-22T18:20:38.160Z,3.97
2023-07-22T18:23:51.147Z,4.30
2023-07-22T18:26:51.147Z,4.60
2023-07-22T18:30:18.230Z,5.50
2023-07-22T18:33:18.174Z,9.17
2023-07-22T18:36:32.159Z,5.97
2023-07-22T18:39:32.194Z,4.60
2023-07-22T18:42:45.215Z,3.60
2023-07-22T18:45:58.249Z,6.60
2023-07-22T18:49:10.300Z,4.37
2023-07-22T18:52:10.273Z,4.07
2023-07-22T18:55:22.245Z,4.50
2023-07-22T18:58:22.337Z,3.53
2023-07-22T19:01:50.273Z,4.80
2023-07-22T19:04:50.342Z,3.90
2023-07-22T19:08:03.303Z,5.07
2023-07-22T19:11:16.302Z,9.15
2023-07-22T19:14:29.287Z,4.40
2023-07-22T19:17:43.337Z,4.73
2023-07-22T19:20:55.358Z,4.27
2023-07-22T19:23:55.317Z,6.07
2023-07-22T19:27:08.334Z,3.40
2023-07-22T19:30:09.429Z,4.30
2023-07-22T19:33:39.384Z,5.53
2023-07-22T19:36:39.372Z,3.47
2023-07-22T19:40:03.426Z,7.67
2023-07-22T19:43:03.365Z,4.87
2023-07-22T19:46:32.512Z,4.43
2023-07-22T19:49:49.454Z,4.77
2023-07-22T19:53:03.401Z,4.87
2023-07-22T19:56:18.468Z,4.57
2023-07-22T19:59:31.424Z,6.23
2023-07-22T20:02:31.503Z,4.17
2023-07-22T20:05:57.419Z,4.87
2023-07-22T20:08:58.468Z,8.70
2023-07-22T20:12:11.464Z,4.90
2023-07-22T20:15:11.557Z,5.77
2023-07-22T20:18:23.519Z,5.87
2023-07-22T20:21:37.585Z,7.60
2023-07-22T20:24:49.567Z,5.57
2023-07-22T20:27:49.526Z,5.55
2023-07-22T20:31:03.598Z,5.90
2023-07-22T20:34:03.588Z,6.77
2023-07-22T20:37:29.664Z,5.27
2023-07-22T20:40:29.581Z,6.43
2023-07-22T20:43:41.588Z,5.37
2023-07-22T20:46:41.655Z,5.63
2023-07-22T20:50:06.715Z,4.40
2023-07-22T20:53:20.598Z,5.73
2023-07-22T20:56:32.743Z,4.70
2023-07-22T20:59:32.626Z,5.97
2023-07-22T21:02:45.680Z,5.80
2023-07-22T21:05:45.639Z,5.33
2023-07-22T21:09:11.725Z,4.03
2023-07-22T21:12:11.736Z,5.30
2023-07-22T21:15:24.696Z,12.70
2023-07-22T21:18:24.751Z,5.63
2023-07-22T21:21:37.808Z,5.93
2023-07-22T21:24:51.751Z,6.67
2023-07-22T21:28:17.897Z,5.80
2023-07-22T21:31:16.960Z,6.27
2023-07-22T21:34:28.786Z,4.43
2023-07-22T21:37:28.795Z,6.73
2023-07-22T21:40:54.801Z,5.27
2023-07-22T21:43:55.757Z,7.13
2023-07-22T21:47:20.844Z,6.50
2023-07-22T21:50:33.775Z,4.70
2023-07-22T21:53:45.796Z,5.30
2023-07-22T21:56:58.780Z,4.40
2023-07-22T22:00:24.942Z,6.17
2023-07-22T22:03:37.864Z,6.07
2023-07-22T22:06:37.898Z,7.43
2023-07-22T22:09:50.862Z,3.40
2023-07-22T22:13:04.887Z,3.57
2023-07-22T22:16:17.963Z,4.63
2023-07-22T22:19:18.178Z,3.47
2023-07-22T22:22:42.844Z,5.80
2023-07-22T22:25:42.964Z,5.40
2023-07-22T22:29:09.024Z,3.40
2023-07-22T22:32:08.901Z,3.50
2023-07-22T22:35:33.985Z,4.20
2023-07-22T22:38:34.018Z,5.50
2023-07-22T22:41:46.929Z,5.33
2023-07-22T22:45:01.070Z,3.20
2023-07-22T22:48:25.999Z,2.83
2023-07-22T22:51:27.209Z,3.13
2023-07-22T22:54:40.032Z,3.97
2023-07-22T22:57:40.002Z,5.70
2023-07-22T23:01:05.977Z,4.20
2023-07-22T23:04:06.032Z,4.03
2023-07-22T23:07:19.004Z,5.50
2023-07-22T23:10:20.005Z,4.27
2023-07-22T23:13:33.326Z,5.35
2023-07-22T23:16:48.050Z,4.00
2023-07-22T23:20:03.033Z,4.07
2023-07-22T23:23:03.079Z,4.00
2023-07-22T23:26:15.078Z,5.20
2023-07-22T23:29:16.081Z,4.97
2023-07-22T23:32:43.109Z,3.93
2023-07-22T23:35:43.091Z,3.30
2023-07-22T23:39:07.144Z,4.77
2023-07-22T23:42:07.184Z,7.20
2023-07-22T23:45:20.172Z,4.03
2023-07-22T23:48:34.163Z,4.75
2023-07-22T23:51:46.198Z,4.30
2023-07-22T23:54:46.175Z,6.13
2023-07-22T23:57:58.228Z,5.30
